createdAt,value
2022-09-21T00:01:42.994Z,101010.81
2022-09-21T00:04:11.752Z,101019.47
2022-09-21T00:06:40.168Z,101015.13
2022-09-21T00:09:09.861Z,101019.47
2022-09-21T00:11:38.800Z,101014.25
2022-09-21T00:14:12.168Z,101020.31
2022-09-21T00:16:41.393Z,101021.19
2022-09-21T00:19:10.688Z,101012.53
2022-09-21T00:21:39.913Z,101023.78
2022-09-21T00:24:10.006Z,101016.03
2022-09-21T00:26:38.410Z,101019.44
2022-09-21T00:29:08.043Z,101024.66
2022-09-21T00:31:36.457Z,101017.72
2022-09-21T00:34:07.872Z,101018.56
2022-09-21T00:36:36.841Z,101020.25
2022-09-21T00:39:05.535Z,101018.47
2022-09-21T00:41:36.126Z,101027.97
2022-09-21T00:44:32.243Z,101026.22
2022-09-21T00:47:08.758Z,101028.81
2022-09-21T00:49:38.191Z,101023.59
2022-09-21T00:52:08.082Z,101034.84
2022-09-21T00:54:44.355Z,101029.69
2022-09-21T00:57:15.656Z,101033.94
2022-09-21T00:59:46.326Z,101032.25
2022-09-21T01:02:15.414Z,101027.97
2022-09-21T01:04:44.181Z,101035.81
2022-09-21T01:07:17.864Z,101029.78
2022-09-21T01:09:50.093Z,101032.34
2022-09-21T01:12:40.340Z,101035.78
2022-09-21T01:15:24.558Z,101034.75
2022-09-21T01:18:00.603Z,101045.91
2022-09-21T01:21:17.511Z,101044.09
2022-09-21T01:24:24.186Z,101047.50
2022-09-21T01:27:25.573Z,101038.84
2022-09-21T01:30:00.667Z,101046.59
2022-09-21T01:32:35.529Z,101050.84
2022-09-21T01:35:09.457Z,101048.19
2022-09-21T01:37:42.591Z,101049.03
2022-09-21T01:40:16.725Z,101056.75
2022-09-21T01:42:47.240Z,101051.53
2022-09-21T01:45:20.794Z,101047.19
2022-09-21T01:47:51.967Z,101049.72
2022-09-21T01:50:27.174Z,101054.91
2022-09-21T01:53:02.299Z,101048.00
2022-09-21T01:55:38.268Z,101047.97
2022-09-21T01:58:13.954Z,101050.59
2022-09-21T02:00:48.049Z,101053.13
2022-09-21T02:03:22.535Z,101047.94
2022-09-21T02:05:51.093Z,101044.44
2022-09-21T02:08:19.753Z,101039.31
2022-09-21T02:10:52.476Z,101037.53
2022-09-21T02:13:25.354Z,101039.28
2022-09-21T02:16:29.327Z,101033.13
2022-09-21T02:19:12.586Z,101039.16
2022-09-21T02:21:57.346Z,101036.59
2022-09-21T02:24:37.014Z,101035.59
2022-09-21T02:27:09.125Z,101033.78
2022-09-21T02:29:50.047Z,101035.47
2022-09-21T02:32:35.153Z,101038.91
2022-09-21T02:35:09.393Z,101039.78
2022-09-21T02:37:46.725Z,101037.22
2022-09-21T02:40:25.123Z,101038.06
2022-09-21T02:42:59.122Z,101044.81
2022-09-21T02:45:33.022Z,101041.47
2022-09-21T02:48:07.354Z,101042.28
2022-09-21T02:50:42.378Z,101040.59
2022-09-21T02:53:13.136Z,101044.03
2022-09-21T02:55:44.839Z,101049.19
2022-09-21T02:58:17.935Z,101043.19
2022-09-21T03:00:46.556Z,101047.47
2022-09-21T03:03:22.134Z,101039.66
2022-09-21T03:05:54.906Z,101038.69
2022-09-21T03:08:23.807Z,101039.50
2022-09-21T03:10:52.380Z,101039.34
2022-09-21T03:13:20.810Z,101045.34
2022-09-21T03:15:49.130Z,101042.69
2022-09-21T03:18:18.955Z,101037.41
2022-09-21T03:20:48.106Z,101041.84
2022-09-21T03:23:16.430Z,101048.69
2022-09-21T03:25:46.405Z,101050.34
2022-09-21T03:28:15.998Z,101057.97
2022-09-21T03:30:44.768Z,101054.53
2022-09-21T03:33:13.811Z,101051.91
2022-09-21T03:35:43.832Z,101051.03
2022-09-21T03:38:13.063Z,101051.03
2022-09-21T03:40:41.407Z,101060.56
2022-09-21T03:43:09.755Z,101057.09
2022-09-21T03:45:40.708Z,101049.38
2022-09-21T03:48:10.468Z,101063.88
2022-09-21T03:50:39.515Z,101053.28
2022-09-21T03:53:10.233Z,101058.63
2022-09-21T03:55:38.632Z,101055.00
2022-09-21T03:58:07.306Z,101069.59
2022-09-21T04:00:35.843Z,101066.91
2022-09-21T04:03:04.196Z,101074.81
2022-09-21T04:05:32.625Z,101070.56
2022-09-21T04:08:02.116Z,101074.00
2022-09-21T04:10:33.874Z,101075.63
2022-09-21T04:13:03.442Z,101079.84
2022-09-21T04:15:32.230Z,101075.50
2022-09-21T04:18:00.684Z,101080.81
2022-09-21T04:20:29.088Z,101079.13
2022-09-21T04:22:57.964Z,101079.00
2022-09-21T04:25:26.754Z,101078.00
2022-09-21T04:27:57.584Z,101079.53
2022-09-21T04:30:25.995Z,101076.41
2022-09-21T04:32:54.385Z,101070.38
2022-09-21T04:35:22.994Z,101075.63
2022-09-21T04:37:51.440Z,101079.03
2022-09-21T04:40:19.806Z,101073.69
2022-09-21T04:42:53.572Z,101072.78
2022-09-21T04:45:24.617Z,101083.06
2022-09-21T04:47:52.978Z,101082.94
2022-09-21T04:50:21.339Z,101081.13
2022-09-21T04:52:49.663Z,101087.34
2022-09-21T04:55:18.234Z,101086.44
2022-09-21T04:57:46.608Z,101079.50
2022-09-21T05:00:15.852Z,101083.78
2022-09-21T05:02:45.529Z,101087.88
2022-09-21T05:05:13.954Z,101077.44
2022-09-21T05:07:42.299Z,101094.81
2022-09-21T05:10:11.413Z,101090.59
2022-09-21T05:12:41.228Z,101092.31
2022-09-21T05:15:11.315Z,101096.44
2022-09-21T05:17:39.755Z,101103.41
2022-09-21T05:20:11.604Z,101104.25
2022-09-21T05:22:39.936Z,101107.66
2022-09-21T05:25:10.586Z,101097.28
2022-09-21T05:27:38.938Z,101111.16
2022-09-21T05:30:09.504Z,101119.00
2022-09-21T05:32:49.345Z,101113.06
2022-09-21T05:35:27.537Z,101113.13
2022-09-21T05:38:02.680Z,101113.16
2022-09-21T05:40:32.033Z,101113.22
2022-09-21T05:43:01.171Z,101110.78
2022-09-21T05:45:30.356Z,101120.84
2022-09-21T05:48:09.090Z,101118.94
2022-09-21T05:50:53.127Z,101121.69
2022-09-21T05:53:44.791Z,101121.91
2022-09-21T05:56:25.622Z,101125.41
2022-09-21T05:59:06.394Z,101127.06
2022-09-21T06:01:50.595Z,101128.91
2022-09-21T06:04:19.710Z,101126.16
2022-09-21T06:06:49.717Z,101131.47
2022-09-21T06:09:18.174Z,101138.50
2022-09-21T06:11:46.579Z,101135.06
2022-09-21T06:14:14.976Z,101141.22
2022-09-21T06:16:44.366Z,101132.59
2022-09-21T06:19:13.428Z,101149.16
2022-09-21T06:21:41.811Z,101151.81
2022-09-21T06:24:11.980Z,101142.38
2022-09-21T06:26:40.434Z,101143.97
2022-09-21T06:29:08.804Z,101151.00
2022-09-21T06:31:37.335Z,101141.69
2022-09-21T06:34:05.806Z,101146.88
2022-09-21T06:36:34.256Z,101146.94
2022-09-21T06:39:02.670Z,101151.25
2022-09-21T06:41:32.386Z,101148.75
2022-09-21T06:44:01.042Z,101154.06
2022-09-21T06:46:29.469Z,101155.91
2022-09-21T06:48:58.261Z,101154.25
2022-09-21T06:51:26.765Z,101164.72
2022-09-21T06:53:57.164Z,101165.63
2022-09-21T06:56:26.603Z,101158.78
2022-09-21T06:58:57.127Z,101158.06
2022-09-21T07:01:25.657Z,101155.53
2022-09-21T07:03:55.135Z,101160.72
2022-09-21T07:06:23.647Z,101163.31
2022-09-21T07:11:42.392Z,101164.47
2022-09-21T07:14:12.188Z,101170.59
2022-09-21T07:16:41.133Z,101176.03
2022-09-21T07:19:11.548Z,101169.13
2022-09-21T07:21:40.616Z,101177.88
2022-09-21T07:24:12.482Z,101172.84
2022-09-21T07:26:41.359Z,101170.44
2022-09-21T07:29:11.266Z,101168.72
2022-09-21T07:31:39.941Z,101170.06
2022-09-21T07:34:08.415Z,101164.28
2022-09-21T07:36:36.921Z,101166.72
2022-09-21T07:39:06.317Z,101170.41
2022-09-21T07:41:34.605Z,101169.81
2022-09-21T07:44:03.482Z,101168.84
2022-09-21T07:46:33.247Z,101169.13
2022-09-21T07:49:01.535Z,101167.84
2022-09-21T07:51:30.020Z,101167.94
2022-09-21T07:53:58.452Z,101168.75
2022-09-21T07:56:27.244Z,101166.94
2022-09-21T07:59:06.606Z,101168.53
2022-09-21T08:01:38.370Z,101166.09
2022-09-21T08:04:09.132Z,101164.75
2022-09-21T08:06:40.141Z,101171.13
2022-09-21T08:09:09.583Z,101174.78
2022-09-21T08:11:39.157Z,101174.34
2022-09-21T08:14:07.632Z,101168.91
2022-09-21T08:16:39.874Z,101172.91
2022-09-21T08:19:08.311Z,101172.47
2022-09-21T08:21:36.693Z,101175.06
2022-09-21T08:24:05.440Z,101180.09
2022-09-21T08:26:33.885Z,101179.94
2022-09-21T08:29:02.775Z,101181.19
2022-09-21T08:31:31.169Z,101179.19
2022-09-21T08:34:01.475Z,101182.75
2022-09-21T08:36:29.864Z,101176.16
2022-09-21T08:38:58.420Z,101174.75
2022-09-21T08:41:56.610Z,101182.53
2022-09-21T08:44:28.738Z,101187.66
2022-09-21T08:47:07.353Z,101181.00
2022-09-21T08:49:41.851Z,101183.88
2022-09-21T08:52:17.249Z,101186.53
2022-09-21T08:54:53.072Z,101177.25
2022-09-21T08:57:23.688Z,101172.47
2022-09-21T08:59:52.139Z,101173.63
2022-09-21T09:02:41.690Z,101176.41
2022-09-21T09:05:33.750Z,101179.19
2022-09-21T09:08:22.955Z,101176.81
2022-09-21T09:11:02.530Z,101175.59
2022-09-21T09:13:48.943Z,101168.75
2022-09-21T09:16:26.190Z,101169.34
2022-09-21T09:18:58.719Z,101167.25
2022-09-21T09:21:34.192Z,101166.63
2022-09-21T09:24:07.846Z,101166.44
2022-09-21T09:26:42.789Z,101169.91
2022-09-21T09:29:20.578Z,101169.25
2022-09-21T09:31:51.302Z,101158.03
2022-09-21T09:34:25.889Z,101167.78
2022-09-21T09:37:01.357Z,101164.06
2022-09-21T09:39:31.797Z,101157.53
2022-09-21T09:42:29.347Z,101160.25
2022-09-21T09:45:31.434Z,101157.22
2022-09-21T09:48:21.866Z,101156.72
2022-09-21T09:50:50.380Z,101151.44
2022-09-21T09:53:23.541Z,101143.66
2022-09-21T09:55:54.423Z,101145.69
2022-09-21T09:58:25.068Z,101140.84
2022-09-21T10:00:55.544Z,101140.91
2022-09-21T10:03:26.909Z,101132.19
2022-09-21T10:05:56.044Z,101139.13
2022-09-21T10:08:43.260Z,101144.84
2022-09-21T10:11:14.058Z,101135.22
2022-09-21T10:13:44.796Z,101133.13
2022-09-21T10:16:21.074Z,101128.91
2022-09-21T10:18:52.519Z,101131.97
2022-09-21T10:21:24.482Z,101136.16
2022-09-21T10:23:59.737Z,101127.94
2022-09-21T10:26:33.485Z,101120.88
2022-09-21T10:29:17.810Z,101125.38
2022-09-21T10:31:57.295Z,101111.41
2022-09-21T10:34:27.907Z,101111.00
2022-09-21T10:36:58.659Z,101117.81
2022-09-21T10:39:31.011Z,101110.38
2022-09-21T10:42:04.442Z,101114.00
2022-09-21T10:44:45.680Z,101114.34
2022-09-21T10:47:24.276Z,101110.69
2022-09-21T10:49:55.309Z,101111.16
2022-09-21T10:52:26.451Z,101106.00
2022-09-21T10:54:57.464Z,101108.81
2022-09-21T10:57:28.629Z,101102.16
2022-09-21T10:59:57.636Z,101102.91
2022-09-21T11:02:36.139Z,101105.72
2022-09-21T11:05:13.660Z,101104.16
2022-09-21T11:07:50.347Z,101092.28
2022-09-21T11:10:25.732Z,101103.44
2022-09-21T11:13:04.896Z,101100.53
2022-09-21T11:15:43.313Z,101097.03
2022-09-21T11:18:21.577Z,101102.28
2022-09-21T11:20:56.319Z,101101.13
2022-09-21T11:23:54.012Z,101093.41
2022-09-21T11:26:30.649Z,101090.13
2022-09-21T11:29:07.017Z,101092.94
2022-09-21T11:31:48.360Z,101084.63
2022-09-21T11:34:31.268Z,101096.00
2022-09-21T11:37:11.080Z,101087.22
2022-09-21T11:40:02.216Z,101088.28
2022-09-21T11:42:50.034Z,101080.09
2022-09-21T11:45:39.990Z,101080.13
2022-09-21T11:48:21.895Z,101074.50
2022-09-21T11:51:05.360Z,101084.19
2022-09-21T11:53:57.552Z,101078.47
2022-09-21T11:56:50.471Z,101069.09
2022-09-21T11:59:44.898Z,101078.25
2022-09-21T12:02:35.678Z,101066.75
2022-09-21T12:05:15.217Z,101064.84
2022-09-21T12:08:35.899Z,101069.50
2022-09-21T12:11:14.121Z,101062.09
2022-09-21T12:13:52.122Z,101061.56
2022-09-21T12:16:33.948Z,101063.53
2022-09-21T12:19:10.815Z,101060.72
2022-09-21T12:21:44.177Z,101056.88
2022-09-21T12:24:20.731Z,101045.72
2022-09-21T12:26:53.519Z,101045.41
2022-09-21T12:29:30.355Z,101052.44
2022-09-21T12:32:06.970Z,101041.69
2022-09-21T12:34:42.009Z,101059.28
2022-09-21T12:37:16.765Z,101043.28
2022-09-21T12:39:57.019Z,101038.53
2022-09-21T12:42:34.659Z,101040.94
2022-09-21T12:45:09.217Z,101041.22
2022-09-21T12:47:50.345Z,101028.97
2022-09-21T12:50:26.072Z,101032.00
2022-09-21T12:52:56.101Z,101028.09
2022-09-21T12:55:44.424Z,101028.16
2022-09-21T12:58:29.928Z,101026.63
2022-09-21T13:01:11.163Z,101026.56
2022-09-21T13:03:53.296Z,101016.13
2022-09-21T13:07:09.311Z,101016.66
2022-09-21T13:09:42.147Z,101018.00
2022-09-21T13:12:20.704Z,101018.19
2022-09-21T13:14:52.964Z,101014.84
2022-09-21T13:17:24.571Z,101007.84
2022-09-21T13:20:02.441Z,101005.72
2022-09-21T13:22:34.286Z,100998.41
2022-09-21T13:25:09.323Z,100999.91
2022-09-21T13:28:05.184Z,101005.72
2022-09-21T13:30:39.110Z,101007.03
2022-09-21T13:33:33.238Z,100996.34
2022-09-21T13:36:31.575Z,100992.03
2022-09-21T13:39:18.820Z,100995.69
2022-09-21T13:42:03.775Z,100990.34
2022-09-21T13:44:46.409Z,100988.88
2022-09-21T13:47:15.078Z,100985.06
2022-09-21T13:49:55.899Z,100985.38
2022-09-21T13:52:40.450Z,100989.72
2022-09-21T13:55:28.393Z,100977.97
2022-09-21T13:57:59.983Z,100978.81
2022-09-21T14:00:39.425Z,100977.19
2022-09-21T14:03:24.817Z,100973.88
2022-09-21T14:05:56.011Z,100969.06
2022-09-21T14:08:34.046Z,100978.25
2022-09-21T14:11:07.987Z,100974.94
2022-09-21T14:13:39.010Z,100975.00
2022-09-21T14:16:55.748Z,100968.25
2022-09-21T14:20:00.859Z,100970.53
2022-09-21T14:22:50.070Z,100968.94
2022-09-21T14:25:51.055Z,100974.41
2022-09-21T14:28:30.119Z,100963.09
2022-09-21T14:31:03.260Z,100963.78
2022-09-21T14:33:46.132Z,100969.28
2022-09-21T14:36:21.949Z,100964.72
2022-09-21T14:38:57.653Z,100956.63
2022-09-21T14:41:39.075Z,100967.22
2022-09-21T14:44:09.815Z,100961.72
2022-09-21T14:47:16.767Z,100950.00
2022-09-21T14:50:18.453Z,100958.53
2022-09-21T14:53:18.995Z,100951.88
2022-09-21T14:56:10.163Z,100947.22
2022-09-21T14:58:55.742Z,100938.97
2022-09-21T15:01:38.202Z,100939.59
2022-09-21T15:04:34.021Z,100940.56
2022-09-21T15:07:41.310Z,100935.41
2022-09-21T15:10:50.793Z,100934.97
2022-09-21T15:13:45.773Z,100936.06
2022-09-21T15:16:37.661Z,100925.16
2022-09-21T15:19:22.895Z,100928.97
2022-09-21T15:21:54.022Z,100925.47
2022-09-21T15:24:28.434Z,100926.13
2022-09-21T15:27:07.093Z,100925.38
2022-09-21T15:29:37.814Z,100923.63
2022-09-21T15:32:07.572Z,100913.31
2022-09-21T15:34:36.003Z,100918.66
2022-09-21T15:37:09.892Z,100919.16
2022-09-21T15:39:38.389Z,100920.44
2022-09-21T15:42:22.920Z,100911.09
2022-09-21T15:45:06.496Z,100909.22
2022-09-21T15:47:35.456Z,100910.50
2022-09-21T15:50:04.063Z,100915.53
2022-09-21T15:52:37.884Z,100914.34
2022-09-21T15:55:14.934Z,100910.66
2022-09-21T15:57:44.730Z,100905.84
2022-09-21T16:00:24.761Z,100911.22
2022-09-21T16:03:07.494Z,100909.75
2022-09-21T16:05:48.940Z,100910.44
2022-09-21T16:08:30.071Z,100913.88
2022-09-21T16:11:37.788Z,100910.28
2022-09-21T16:14:30.449Z,100909.44
2022-09-21T16:17:27.149Z,100914.31
2022-09-21T16:20:20.711Z,100909.69
2022-09-21T16:22:51.509Z,100913.16
2022-09-21T16:25:38.297Z,100918.22
2022-09-21T16:28:27.345Z,100916.81
2022-09-21T16:30:57.296Z,100923.81
2022-09-21T16:33:44.040Z,100922.22
2022-09-21T16:36:42.410Z,100927.22
2022-09-21T16:39:15.679Z,100919.44
2022-09-21T16:41:55.414Z,100923.16
2022-09-21T16:44:26.525Z,100926.72
2022-09-21T16:46:58.659Z,100926.16
2022-09-21T16:49:34.750Z,100931.59
2022-09-21T16:52:03.701Z,100924.78
2022-09-21T16:54:32.721Z,100929.13
2022-09-21T16:57:03.328Z,100926.56
2022-09-21T16:59:33.337Z,100924.88
2022-09-21T17:02:04.314Z,100938.72
2022-09-21T17:04:35.885Z,100936.22
2022-09-21T17:07:06.120Z,100931.06
2022-09-21T17:09:37.870Z,100933.59
2022-09-21T17:12:09.109Z,100933.69
2022-09-21T17:14:42.976Z,100935.59
2022-09-21T17:17:18.275Z,100934.91
2022-09-21T17:19:49.902Z,100944.66
2022-09-21T17:22:19.349Z,100935.97
2022-09-21T17:24:51.726Z,100932.50
2022-09-21T17:27:23.704Z,100937.88
2022-09-21T17:29:54.033Z,100939.66
2022-09-21T17:32:24.716Z,100931.94
2022-09-21T17:34:59.746Z,100932.91
2022-09-21T17:37:28.201Z,100931.31
2022-09-21T17:39:56.563Z,100942.75
2022-09-21T17:42:25.878Z,100933.28
2022-09-21T17:45:14.955Z,100930.88
2022-09-21T17:47:43.991Z,100935.25
2022-09-21T17:50:24.106Z,100935.38
2022-09-21T17:53:11.068Z,100942.31
2022-09-21T17:55:40.751Z,100946.75
2022-09-21T17:58:37.745Z,100948.50
2022-09-21T18:01:09.084Z,100946.78
2022-09-21T18:03:41.214Z,100956.41
2022-09-21T18:06:13.308Z,100961.69
2022-09-21T18:08:42.831Z,100958.31
2022-09-21T18:11:41.230Z,100966.34
2022-09-21T18:14:20.335Z,100971.56
2022-09-21T18:17:00.299Z,100962.19
2022-09-21T18:19:43.874Z,100970.88
2022-09-21T18:22:22.537Z,100973.56
2022-09-21T18:24:52.184Z,100975.50
2022-09-21T18:27:23.046Z,100980.78
2022-09-21T18:29:52.191Z,100978.28
2022-09-21T18:32:52.328Z,100974.88
2022-09-21T18:35:42.387Z,100977.44
2022-09-21T18:38:25.988Z,100981.84
2022-09-21T18:41:12.876Z,100987.03
2022-09-21T18:43:59.798Z,100978.38
2022-09-21T18:46:35.258Z,100978.41
2022-09-21T18:49:10.676Z,100988.91
2022-09-21T18:51:47.319Z,100988.94
2022-09-21T18:54:21.222Z,100985.53
2022-09-21T18:56:50.607Z,100985.63
2022-09-21T18:59:19.687Z,100985.59
2022-09-21T19:01:50.673Z,100989.09
2022-09-21T19:04:20.166Z,100989.16
2022-09-21T19:06:55.938Z,100983.13
2022-09-21T19:09:43.208Z,100990.97
2022-09-21T19:12:35.109Z,100990.22
2022-09-21T19:15:17.024Z,100991.16
2022-09-21T19:18:03.999Z,100988.56
2022-09-21T19:21:09.662Z,100988.66
2022-09-21T19:23:55.411Z,100991.31
2022-09-21T19:26:32.754Z,100990.47
2022-09-21T19:29:21.091Z,100984.47
2022-09-21T19:31:50.013Z,100997.53
2022-09-21T19:34:20.749Z,100993.22
2022-09-21T19:36:49.639Z,100992.34
2022-09-21T19:39:19.865Z,100988.91
2022-09-21T19:42:03.849Z,100988.09
2022-09-21T19:44:51.273Z,100992.50
2022-09-21T19:47:29.680Z,100986.47
2022-09-21T19:50:11.823Z,100983.91
2022-09-21T19:52:40.997Z,100990.88
2022-09-21T19:55:34.215Z,100990.91
2022-09-21T19:58:23.382Z,100990.09
2022-09-21T20:00:55.367Z,100991.06
2022-09-21T20:03:34.031Z,100993.84
2022-09-21T20:06:10.053Z,100984.47
2022-09-21T20:08:49.004Z,100985.34
2022-09-21T20:11:35.958Z,100988.06
2022-09-21T20:14:30.940Z,100997.63
2022-09-21T20:17:02.631Z,100992.47
2022-09-21T20:19:46.434Z,100993.47
2022-09-21T20:22:17.581Z,100986.56
2022-09-21T20:24:55.387Z,100987.44
2022-09-21T20:27:34.880Z,100992.63
2022-09-21T20:30:09.494Z,100997.88
2022-09-21T20:32:40.107Z,100995.28
2022-09-21T20:35:16.710Z,101000.53
2022-09-21T20:37:45.827Z,100999.72
2022-09-21T20:40:15.733Z,100998.03
2022-09-21T20:42:44.244Z,101003.25
2022-09-21T20:45:14.884Z,100998.03
2022-09-21T20:47:43.959Z,100994.63
2022-09-21T20:50:13.684Z,100999.06
2022-09-21T20:52:42.879Z,100989.56
2022-09-21T20:55:13.648Z,100998.28
2022-09-21T20:57:42.035Z,101000.03
2022-09-21T21:00:16.939Z,100999.19
2022-09-21T21:02:45.335Z,101007.00
2022-09-21T21:05:13.657Z,101002.63
2022-09-21T21:07:43.527Z,101001.78
2022-09-21T21:10:14.179Z,101000.13
2022-09-21T21:12:43.116Z,101003.63
2022-09-21T21:15:14.608Z,100997.59
2022-09-21T21:17:44.563Z,100996.69
2022-09-21T21:20:13.941Z,101000.19
2022-09-21T21:22:42.298Z,100994.97
2022-09-21T21:25:11.305Z,100992.41
2022-09-21T21:27:42.663Z,100996.75
2022-09-21T21:30:15.671Z,100997.69
2022-09-21T21:32:44.025Z,100999.44
2022-09-21T21:35:12.568Z,100997.69
2022-09-21T21:37:41.279Z,100989.88
2022-09-21T21:40:11.991Z,100992.53
2022-09-21T21:42:40.604Z,100990.81
2022-09-21T21:45:10.286Z,100995.16
2022-09-21T21:47:41.218Z,100994.31
2022-09-21T21:50:11.108Z,100989.09
2022-09-21T21:52:40.650Z,100993.47
2022-09-21T21:55:10.624Z,100998.69
2022-09-21T21:57:39.165Z,100995.22
2022-09-21T22:00:10.065Z,100995.25
2022-09-21T22:02:40.258Z,100994.34
2022-09-21T22:05:09.831Z,100992.66
2022-09-21T22:07:38.857Z,100993.50
2022-09-21T22:10:09.309Z,100996.97
2022-09-21T22:12:37.920Z,100999.63
2022-09-21T22:15:07.856Z,100995.31
2022-09-21T22:17:36.295Z,100999.63
2022-09-21T22:20:07.855Z,101002.25
2022-09-21T22:22:39.132Z,100997.03
2022-09-21T22:25:09.555Z,101003.09
2022-09-21T22:27:37.948Z,100995.28
2022-09-21T22:30:08.327Z,100993.56
2022-09-21T22:32:36.747Z,100991.88
2022-09-21T22:35:07.594Z,100996.19
2022-09-21T22:37:35.968Z,100997.94
2022-09-21T22:40:05.075Z,100995.31
2022-09-21T22:42:33.431Z,100984.94
2022-09-21T22:45:01.839Z,100991.84
2022-09-21T22:47:33.219Z,100991.88
2022-09-21T22:50:01.745Z,100991.88
2022-09-21T22:52:31.480Z,100990.13
2022-09-21T22:54:59.891Z,100986.69
2022-09-21T22:57:28.217Z,100995.34
2022-09-21T22:59:56.617Z,100989.25
2022-09-21T23:02:25.285Z,100980.63
2022-09-21T23:04:53.757Z,100973.69
2022-09-21T23:07:22.138Z,100983.22
2022-09-21T23:09:51.818Z,100972.84
2022-09-21T23:12:20.136Z,100976.28
2022-09-21T23:14:48.676Z,100965.91
2022-09-21T23:17:17.116Z,100973.66
2022-09-21T23:19:46.836Z,100974.56
2022-09-21T23:22:15.179Z,100977.13
2022-09-21T23:24:43.485Z,100972.81
2022-09-21T23:27:13.213Z,100978.00
2022-09-21T23:29:41.588Z,100968.47
2022-09-21T23:32:09.923Z,100969.31
2022-09-21T23:34:38.262Z,100971.03
2022-09-21T23:37:06.709Z,100973.63
2022-09-21T23:39:35.152Z,100972.72
2022-09-21T23:42:03.547Z,100977.81
2022-09-21T23:44:33.315Z,100972.69
2022-09-21T23:47:01.769Z,100977.84
2022-09-21T23:49:30.171Z,100974.34
2022-09-21T23:51:58.484Z,100970.88
2022-09-21T23:54:26.856Z,100973.41
2022-09-21T23:56:55.284Z,100970.84
2022-09-21T23:59:23.628Z,100975.16
